Home > Products > Valid Products > TAF

000
FTUS45 KGJT 020525
TAFGJT
TAF
KGJT 020525Z 0206/0306 16003KT P6SM SKC
     FM021400 14008KT P6SM SCT250
     FM021900 23007KT P6SM FEW100 SCT250
     FM030000 27010KT P6SM FEW250=



000
FTUS45 KGJT 020525
TAFGJT
TAF
KGJT 020525Z 0206/0306 16003KT P6SM SKC
     FM021400 14008KT P6SM SCT250
     FM021900 23007KT P6SM FEW100 SCT250
     FM030000 27010KT P6SM FEW250=



000
FTUS45 KGJT 020525
TAFGJT
TAF
KGJT 020525Z 0206/0306 16003KT P6SM SKC
     FM021400 14008KT P6SM SCT250
     FM021900 23007KT P6SM FEW100 SCT250
     FM030000 27010KT P6SM FEW250=



000
FTUS45 KGJT 020525
TAFGJT
TAF
KGJT 020525Z 0206/0306 16003KT P6SM SKC
     FM021400 14008KT P6SM SCT250
     FM021900 23007KT P6SM FEW100 SCT250
     FM030000 27010KT P6SM FEW250=



000
FTUS45 KGJT 012327
TAFGJT
TAF
KGJT 012327Z 0200/0224 26005KT P6SM VCTS FEW080CB BKN150
      TEMPO 0200/0202 VRB15G28KT -TSRA BKN080CB
     FM020200 06010KT P6SM VCSH SCT090 BKN150
     FM020600 10008KT P6SM SCT200
     FM021400 14008KT P6SM SCT250
     FM021900 23007KT P6SM FEW100 SCT250=



000
FTUS45 KGJT 012327
TAFGJT
TAF
KGJT 012327Z 0200/0224 26005KT P6SM VCTS FEW080CB BKN150
      TEMPO 0200/0202 VRB15G28KT -TSRA BKN080CB
     FM020200 06010KT P6SM VCSH SCT090 BKN150
     FM020600 10008KT P6SM SCT200
     FM021400 14008KT P6SM SCT250
     FM021900 23007KT P6SM FEW100 SCT250=



000
FTUS45 KGJT 012327
TAFGJT
TAF
KGJT 012327Z 0200/0224 26005KT P6SM VCTS FEW080CB BKN150
      TEMPO 0200/0202 VRB15G28KT -TSRA BKN080CB
     FM020200 06010KT P6SM VCSH SCT090 BKN150
     FM020600 10008KT P6SM SCT200
     FM021400 14008KT P6SM SCT250
     FM021900 23007KT P6SM FEW100 SCT250=



000
FTUS45 KGJT 011730
TAFGJT
TAF
KGJT 011730Z 0118/0218 17008KT P6SM VCTS SCT100CB BKN200
     FM012000 26007KT P6SM VCTS SCT100CB BKN150
      TEMPO 0120/0124 VRB20G30KT -TSRA SCT070 BKN090CB
     FM020200 03012KT P6SM VCSH SCT090 BKN150
     FM020600 10008KT P6SM BKN200
     FM021400 14008KT P6SM SCT250=



000
FTUS45 KGJT 011730
TAFGJT
TAF
KGJT 011730Z 0118/0218 17008KT P6SM VCTS SCT100CB BKN200
     FM012000 26007KT P6SM VCTS SCT100CB BKN150
      TEMPO 0120/0124 VRB20G30KT -TSRA SCT070 BKN090CB
     FM020200 03012KT P6SM VCSH SCT090 BKN150
     FM020600 10008KT P6SM BKN200
     FM021400 14008KT P6SM SCT250=



000
FTUS45 KGJT 011705 AAA
TAFGJT
TAF AMD
KGJT 011705Z 0117/0212 17008KT P6SM VCSH SCT100 BKN200
     FM011900 26007KT P6SM VCTS SCT100CB BKN150
      TEMPO 0120/0124 VRB20G30KT -TSRA SCT070 BKN090CB
     FM020200 03012KT P6SM VCSH SCT090 BKN150
     FM020600 10008KT P6SM BKN200=



000
FTUS45 KGJT 011705 AAA
TAFGJT
TAF AMD
KGJT 011705Z 0117/0212 17008KT P6SM VCSH SCT100 BKN200
     FM011900 26007KT P6SM VCTS SCT100CB BKN150
      TEMPO 0120/0124 VRB20G30KT -TSRA SCT070 BKN090CB
     FM020200 03012KT P6SM VCSH SCT090 BKN150
     FM020600 10008KT P6SM BKN200=



000
FTUS45 KGJT 011705 AAA
TAFGJT
TAF AMD
KGJT 011705Z 0117/0212 17008KT P6SM VCSH SCT100 BKN200
     FM011900 26007KT P6SM VCTS SCT100CB BKN150
      TEMPO 0120/0124 VRB20G30KT -TSRA SCT070 BKN090CB
     FM020200 03012KT P6SM VCSH SCT090 BKN150
     FM020600 10008KT P6SM BKN200=



000
FTUS45 KGJT 011705 AAA
TAFGJT
TAF AMD
KGJT 011705Z 0117/0212 17008KT P6SM VCSH SCT100 BKN200
     FM011900 26007KT P6SM VCTS SCT100CB BKN150
      TEMPO 0120/0124 VRB20G30KT -TSRA SCT070 BKN090CB
     FM020200 03012KT P6SM VCSH SCT090 BKN150
     FM020600 10008KT P6SM BKN200=



000
FTUS45 KGJT 011126
TAFGJT
TAF
KGJT 011126Z 0112/0212 06005KT P6SM FEW140 BKN200
     FM011300 14008KT P6SM FEW140 BKN200
     FM011900 26007KT P6SM FEW100 BKN200
     FM012100 29008KT P6SM VCTS SCT090CB BKN200
      TEMPO 0121/0201 VRB15G25KT -TSRA SCT070 BKN090CB
     FM020300 05005KT P6SM FEW090 BKN200
     FM020600 10008KT P6SM SCT200=



000
FTUS45 KGJT 011126
TAFGJT
TAF
KGJT 011126Z 0112/0212 06005KT P6SM FEW140 BKN200
     FM011300 14008KT P6SM FEW140 BKN200
     FM011900 26007KT P6SM FEW100 BKN200
     FM012100 29008KT P6SM VCTS SCT090CB BKN200
      TEMPO 0121/0201 VRB15G25KT -TSRA SCT070 BKN090CB
     FM020300 05005KT P6SM FEW090 BKN200
     FM020600 10008KT P6SM SCT200=



000
FTUS45 KGJT 011126
TAFGJT
TAF
KGJT 011126Z 0112/0212 06005KT P6SM FEW140 BKN200
     FM011300 14008KT P6SM FEW140 BKN200
     FM011900 26007KT P6SM FEW100 BKN200
     FM012100 29008KT P6SM VCTS SCT090CB BKN200
      TEMPO 0121/0201 VRB15G25KT -TSRA SCT070 BKN090CB
     FM020300 05005KT P6SM FEW090 BKN200
     FM020600 10008KT P6SM SCT200=



000
FTUS45 KGJT 011126
TAFGJT
TAF
KGJT 011126Z 0112/0212 06005KT P6SM FEW140 BKN200
     FM011300 14008KT P6SM FEW140 BKN200
     FM011900 26007KT P6SM FEW100 BKN200
     FM012100 29008KT P6SM VCTS SCT090CB BKN200
      TEMPO 0121/0201 VRB15G25KT -TSRA SCT070 BKN090CB
     FM020300 05005KT P6SM FEW090 BKN200
     FM020600 10008KT P6SM SCT200=



000
FTUS45 KGJT 010543
TAFGJT
TAF
KGJT 010543Z 0106/0206 06005KT P6SM SCT200
     FM011200 14008KT P6SM SCT200
     FM011900 26007KT P6SM FEW100 SCT200
     FM012100 29008KT P6SM VCTS SCT090CB BKN200
     FM020300 05005KT P6SM FEW090 SCT200=



000
FTUS45 KGJT 302323
TAFGJT
TAF
KGJT 302323Z 0100/0124 25008KT P6SM VCTS SCT100CB BKN180
      TEMPO 0100/0102 VRB15G29KT -TSRA BKN100CB
     FM010300 07010KT P6SM FEW120 BKN200
     FM010600 10008KT P6SM SCT200
     FM011200 14008KT P6SM SCT200
     FM011900 26007KT P6SM FEW100 SCT200=



000
FTUS45 KGJT 302323
TAFGJT
TAF
KGJT 302323Z 0100/0124 25008KT P6SM VCTS SCT100CB BKN180
      TEMPO 0100/0102 VRB15G29KT -TSRA BKN100CB
     FM010300 07010KT P6SM FEW120 BKN200
     FM010600 10008KT P6SM SCT200
     FM011200 14008KT P6SM SCT200
     FM011900 26007KT P6SM FEW100 SCT200=



000
FTUS45 KGJT 302323
TAFGJT
TAF
KGJT 302323Z 0100/0124 25008KT P6SM VCTS SCT100CB BKN180
      TEMPO 0100/0102 VRB15G29KT -TSRA BKN100CB
     FM010300 07010KT P6SM FEW120 BKN200
     FM010600 10008KT P6SM SCT200
     FM011200 14008KT P6SM SCT200
     FM011900 26007KT P6SM FEW100 SCT200=



000
FTUS45 KGJT 301737
TAFGJT
TAF
KGJT 301737Z 3018/0118 15007KT P6SM FEW120 BKN200
     FM302100 26010KT P6SM SCT120 BKN200
     FM010300 09007KT P6SM FEW120 BKN200
     FM010600 10008KT P6SM BKN200
     FM011200 14008KT P6SM SCT200=



000
FTUS45 KGJT 301737
TAFGJT
TAF
KGJT 301737Z 3018/0118 15007KT P6SM FEW120 BKN200
     FM302100 26010KT P6SM SCT120 BKN200
     FM010300 09007KT P6SM FEW120 BKN200
     FM010600 10008KT P6SM BKN200
     FM011200 14008KT P6SM SCT200=



000
FTUS45 KGJT 301120
TAFGJT
TAF
KGJT 301120Z 3012/0112 10010KT P6SM FEW200
     FM301600 15010KT P6SM FEW120 SCT200
     FM302100 26010KT P6SM SCT120 BKN200
     FM010300 09007KT P6SM FEW120 SCT200
     FM010600 10008KT P6SM SCT200=



000
FTUS45 KGJT 301120
TAFGJT
TAF
KGJT 301120Z 3012/0112 10010KT P6SM FEW200
     FM301600 15010KT P6SM FEW120 SCT200
     FM302100 26010KT P6SM SCT120 BKN200
     FM010300 09007KT P6SM FEW120 SCT200
     FM010600 10008KT P6SM SCT200=



000
FTUS45 KGJT 301120
TAFGJT
TAF
KGJT 301120Z 3012/0112 10010KT P6SM FEW200
     FM301600 15010KT P6SM FEW120 SCT200
     FM302100 26010KT P6SM SCT120 BKN200
     FM010300 09007KT P6SM FEW120 SCT200
     FM010600 10008KT P6SM SCT200=



000
FTUS45 KGJT 300529
TAFGJT
TAF
KGJT 300529Z 3006/0106 11004KT P6SM FEW200
     FM301600 15010KT P6SM FEW120
     FM302100 26010KT P6SM SCT120 BKN200
     FM010300 09007KT P6SM FEW120 SCT200=



000
FTUS45 KGJT 300529
TAFGJT
TAF
KGJT 300529Z 3006/0106 11004KT P6SM FEW200
     FM301600 15010KT P6SM FEW120
     FM302100 26010KT P6SM SCT120 BKN200
     FM010300 09007KT P6SM FEW120 SCT200=



000
FTUS45 KGJT 292328
TAFGJT
TAF
KGJT 292328Z 3000/3024 30008KT P6SM FEW080 SCT120
     FM300300 06005KT P6SM SKC
     FM300600 12011KT P6SM SKC
     FM301600 15010KT P6SM FEW120
     FM302100 26010KT P6SM SCT120=



000
FTUS45 KGJT 292328
TAFGJT
TAF
KGJT 292328Z 3000/3024 30008KT P6SM FEW080 SCT120
     FM300300 06005KT P6SM SKC
     FM300600 12011KT P6SM SKC
     FM301600 15010KT P6SM FEW120
     FM302100 26010KT P6SM SCT120=



000
FTUS45 KGJT 291733
TAFGJT
TAF
KGJT 291733Z 2918/3018 13008KT P6SM SKC
     FM292000 30008KT P6SM SCT120
     FM300300 06005KT P6SM SKC
     FM300600 12011KT P6SM SKC=



000
FTUS45 KGJT 291733
TAFGJT
TAF
KGJT 291733Z 2918/3018 13008KT P6SM SKC
     FM292000 30008KT P6SM SCT120
     FM300300 06005KT P6SM SKC
     FM300600 12011KT P6SM SKC=



000
FTUS45 KGJT 291211 AAA
TAFGJT
TAF AMD
KGJT 291211Z 2912/3012 12014KT P6SM SCT110
     FM291600 17006KT P6SM SKC
     FM291800 16005KT P6SM FEW120
     FM292000 30008KT P6SM SCT120
     FM300300 06005KT P6SM SKC
     FM300600 12011KT P6SM SKC=



000
FTUS45 KGJT 291211 AAA
TAFGJT
TAF AMD
KGJT 291211Z 2912/3012 12014KT P6SM SCT110
     FM291600 17006KT P6SM SKC
     FM291800 16005KT P6SM FEW120
     FM292000 30008KT P6SM SCT120
     FM300300 06005KT P6SM SKC
     FM300600 12011KT P6SM SKC=



000
FTUS45 KGJT 291211 AAA
TAFGJT
TAF AMD
KGJT 291211Z 2912/3012 12014KT P6SM SCT110
     FM291600 17006KT P6SM SKC
     FM291800 16005KT P6SM FEW120
     FM292000 30008KT P6SM SCT120
     FM300300 06005KT P6SM SKC
     FM300600 12011KT P6SM SKC=



000
FTUS45 KGJT 291122
TAFGJT
TAF
KGJT 291122Z 2912/3012 14014KT P6SM SCT110
     FM291600 17006KT P6SM SKC
     FM291800 16005KT P6SM FEW120
     FM292000 30008KT P6SM SCT120
     FM300300 06005KT P6SM SKC
     FM300600 12011KT P6SM SKC=



000
FTUS45 KGJT 291122
TAFGJT
TAF
KGJT 291122Z 2912/3012 14014KT P6SM SCT110
     FM291600 17006KT P6SM SKC
     FM291800 16005KT P6SM FEW120
     FM292000 30008KT P6SM SCT120
     FM300300 06005KT P6SM SKC
     FM300600 12011KT P6SM SKC=



000
FTUS45 KGJT 290817 AAA
TAFGJT
TAF AMD
KGJT 290817Z 2908/3006 13013KT P6SM SCT110
     FM291100 14010KT P6SM SKC
     FM291700 16005KT P6SM FEW120
     FM292000 30008KT P6SM SCT120
     FM300300 06005KT P6SM SKC=



000
FTUS45 KGJT 290817 AAA
TAFGJT
TAF AMD
KGJT 290817Z 2908/3006 13013KT P6SM SCT110
     FM291100 14010KT P6SM SKC
     FM291700 16005KT P6SM FEW120
     FM292000 30008KT P6SM SCT120
     FM300300 06005KT P6SM SKC=



    US Dept of Commerce
    National Oceanic and Atmospheric Administration
    National Weather Service
    1325 East West Highway
    Silver Spring, MD 20910
    Page Author: NWS Internet Services Team
Disclaimer
Information Quality
Credits
Glossary
Privacy Policy
Freedom of Information Act (FOIA)
About Us
Career Opportunities